sensor_id;sensor_type;location;lat;lon;timestamp;P1;P2;P0
74430;PMS7003;62863;52.062;23.764;2022-09-09T00:03:34;4;3.5;2
74430;PMS7003;62863;52.062;23.764;2022-09-09T00:09:02;4.3;4;3
74430;PMS7003;62863;52.062;23.764;2022-09-09T00:13:52;5.5;3.8;2.8
74430;PMS7003;62863;52.062;23.764;2022-09-09T00:18:55;4;4;4
74430;PMS7003;62863;52.062;23.764;2022-09-09T00:23:38;6.8;4.3;3
74430;PMS7003;62863;52.062;23.764;2022-09-09T00:28:33;6.6;4.4;3.4
74430;PMS7003;62863;52.062;23.764;2022-09-09T00:33:22;7.5;6;4.3
74430;PMS7003;62863;52.062;23.764;2022-09-09T00:38:33;9.5;7.5;5.5
74430;PMS7003;62863;52.062;23.764;2022-09-09T00:43:41;10.3;9.5;6.8
74430;PMS7003;62863;52.062;23.764;2022-09-09T00:49:04;13;10.3;7
74430;PMS7003;62863;52.062;23.764;2022-09-09T00:58:50;15.3;12.8;10.5
74430;PMS7003;62863;52.062;23.764;2022-09-09T01:03:33;22;17.5;12
74430;PMS7003;62863;52.062;23.764;2022-09-09T01:08:53;19.5;17.5;11.5
74430;PMS7003;62863;52.062;23.764;2022-09-09T01:14:01;24;18;12.5
74430;PMS7003;62863;52.062;23.764;2022-09-09T01:18:34;21.8;19;13.8
74430;PMS7003;62863;52.062;23.764;2022-09-09T01:24:38;21.5;19.5;14
74430;PMS7003;62863;52.062;23.764;2022-09-09T01:28:24;21.5;19;13
74430;PMS7003;62863;52.062;23.764;2022-09-09T01:33:47;23;18.5;12.5
74430;PMS7003;62863;52.062;23.764;2022-09-09T01:38:41;23;19.3;13.7
74430;PMS7003;62863;52.062;23.764;2022-09-09T01:43:52;26;22;15.8
74430;PMS7003;62863;52.062;23.764;2022-09-09T01:48:45;21.7;20.3;14
74430;PMS7003;62863;52.062;23.764;2022-09-09T01:53:35;23.7;21;14
74430;PMS7003;62863;52.062;23.764;2022-09-09T01:59:03;21.5;19.5;13
74430;PMS7003;62863;52.062;23.764;2022-09-09T02:03:56;22.8;17.8;13.3
74430;PMS7003;62863;52.062;23.764;2022-09-09T02:08:40;22.8;17.8;13.3
74430;PMS7003;62863;52.062;23.764;2022-09-09T04:13:21;18.5;16;12.5
74430;PMS7003;62863;52.062;23.764;2022-09-09T04:18:49;22.5;20.5;15.5
74430;PMS7003;62863;52.062;23.764;2022-09-09T04:23:47;20;18.5;13.5
74430;PMS7003;62863;52.062;23.764;2022-09-09T04:28:39;21.5;17.5;13
74430;PMS7003;62863;52.062;23.764;2022-09-09T04:33:50;23.6;20;14.4
74430;PMS7003;62863;52.062;23.764;2022-09-09T04:39:01;24.5;20.3;15.3
74430;PMS7003;62863;52.062;23.764;2022-09-09T04:43:38;24;20.8;15
74430;PMS7003;62863;52.062;23.764;2022-09-09T04:48:29;24.8;22;15.5
74430;PMS7003;62863;52.062;23.764;2022-09-09T04:53:59;22;20.5;14.5
74430;PMS7003;62863;52.062;23.764;2022-09-09T04:58:51;21.7;17.7;12.7
74430;PMS7003;62863;52.062;23.764;2022-09-09T05:04:03;15;14;11
74430;PMS7003;62863;52.062;23.764;2022-09-09T05:08:42;19.3;16.5;12.5
74430;PMS7003;62863;52.062;23.764;2022-09-09T05:13:51;16.7;15;12
74430;PMS7003;62863;52.062;23.764;2022-09-09T05:19:05;21.5;18.5;12.5
74430;PMS7003;62863;52.062;23.764;2022-09-09T05:23:42;21.3;17.3;12
74430;PMS7003;62863;52.062;23.764;2022-09-09T05:28:41;17.7;15.7;12
74430;PMS7003;62863;52.062;23.764;2022-09-09T05:33:59;21;19.5;14.5
74430;PMS7003;62863;52.062;23.764;2022-09-09T05:38:31;20;15;10.7
74430;PMS7003;62863;52.062;23.764;2022-09-09T05:43:21;22.3;18;13.7
74430;PMS7003;62863;52.062;23.764;2022-09-09T05:48:42;16;15.5;10.5
74430;PMS7003;62863;52.062;23.764;2022-09-09T05:54:03;13;13;9
74430;PMS7003;62863;52.062;23.764;2022-09-09T05:59:03;16.7;15.7;10.7
74430;PMS7003;62863;52.062;23.764;2022-09-09T06:04:03;19;10;8
74430;PMS7003;62863;52.062;23.764;2022-09-09T06:09:02;19.3;16;12.3
74430;PMS7003;62863;52.062;23.764;2022-09-09T06:14:04;25;19;14
74430;PMS7003;62863;52.062;23.764;2022-09-09T06:19:03;18.3;16.7;12.7
74430;PMS7003;62863;52.062;23.764;2022-09-09T06:23:41;18.2;15.6;11.8
74430;PMS7003;62863;52.062;23.764;2022-09-09T06:28:22;19.5;16;10.3
74430;PMS7003;62863;52.062;23.764;2022-09-09T06:34:04;19;15.8;12
74430;PMS7003;62863;52.062;23.764;2022-09-09T06:38:51;16.3;15;11.7
74430;PMS7003;62863;52.062;23.764;2022-09-09T06:43:41;16.7;15;11
74430;PMS7003;62863;52.062;23.764;2022-09-09T06:48:54;14.7;11.7;8.7
74430;PMS7003;62863;52.062;23.764;2022-09-09T06:53:54;20.7;18;12.3
74430;PMS7003;62863;52.062;23.764;2022-09-09T06:58:42;21;16.7;13.3
74430;PMS7003;62863;52.062;23.764;2022-09-09T07:03:52;20.5;19;12
74430;PMS7003;62863;52.062;23.764;2022-09-09T07:09:05;17.6;14.2;11
74430;PMS7003;62863;52.062;23.764;2022-09-09T07:13:31;17.8;15.8;11.3
74430;PMS7003;62863;52.062;23.764;2022-09-09T07:18:31;18.3;14.7;12
74430;PMS7003;62863;52.062;23.764;2022-09-09T07:24:06;17.5;16.5;12
74430;PMS7003;62863;52.062;23.764;2022-09-09T07:28:55;18;14.5;9.5
74430;PMS7003;62863;52.062;23.764;2022-09-09T07:34:07;20;14;11
74430;PMS7003;62863;52.062;23.764;2022-09-09T07:38:42;21;21;14
74430;PMS7003;62863;52.062;23.764;2022-09-09T07:43:54;13.5;13;11
74430;PMS7003;62863;52.062;23.764;2022-09-09T07:49:05;19;14;10
74430;PMS7003;62863;52.062;23.764;2022-09-09T07:53:41;19;14;10
74430;PMS7003;62863;52.062;23.764;2022-09-09T07:58:42;13;11;9
74430;PMS7003;62863;52.062;23.764;2022-09-09T08:04:00;20.5;15.5;11.5
74430;PMS7003;62863;52.062;23.764;2022-09-09T08:08:31;17;15;11
74430;PMS7003;62863;52.062;23.764;2022-09-09T08:13:43;16;13;10
74430;PMS7003;62863;52.062;23.764;2022-09-09T08:18:31;16;13;10
74430;PMS7003;62863;52.062;23.764;2022-09-09T08:24:06;15;11;9
74430;PMS7003;62863;52.062;23.764;2022-09-09T08:33:42;15;15;12
74430;PMS7003;62863;52.062;23.764;2022-09-09T08:38:39;26;22.3;16.3
74430;PMS7003;62863;52.062;23.764;2022-09-09T08:43:59;26.7;21.7;15.7
74430;PMS7003;62863;52.062;23.764;2022-09-09T08:53:36;17.5;14.5;11
74430;PMS7003;62863;52.062;23.764;2022-09-09T08:58:32;17.7;14.7;10.7
74430;PMS7003;62863;52.062;23.764;2022-09-09T09:04:51;14.7;12.3;9.7
74430;PMS7003;62863;52.062;23.764;2022-09-09T09:13:47;16;13;9
74430;PMS7003;62863;52.062;23.764;2022-09-09T09:18:55;16;12;9
74430;PMS7003;62863;52.062;23.764;2022-09-09T09:28:53;8;8;7
74430;PMS7003;62863;52.062;23.764;2022-09-09T09:33:50;10;9;7
74430;PMS7003;62863;52.062;23.764;2022-09-09T09:39:03;12;10;7
74430;PMS7003;62863;52.062;23.764;2022-09-09T09:43:33;12;10;7
74430;PMS7003;62863;52.062;23.764;2022-09-09T09:48:22;16;12;9
74430;PMS7003;62863;52.062;23.764;2022-09-09T10:38:32;9;9;6
74430;PMS7003;62863;52.062;23.764;2022-09-09T10:43:46;8;7;5
74430;PMS7003;62863;52.062;23.764;2022-09-09T10:48:48;13;9;7
74430;PMS7003;62863;52.062;23.764;2022-09-09T10:54:46;11;10;5
74430;PMS7003;62863;52.062;23.764;2022-09-09T10:59:07;11;10;5
74430;PMS7003;62863;52.062;23.764;2022-09-09T11:03:58;14;8;7
74430;PMS7003;62863;52.062;23.764;2022-09-09T11:08:56;9.3;8.3;6
74430;PMS7003;62863;52.062;23.764;2022-09-09T11:13:55;9.4;8.8;6.4
74430;PMS7003;62863;52.062;23.764;2022-09-09T11:19:09;9.3;8;5.5
74430;PMS7003;62863;52.062;23.764;2022-09-09T11:23:23;10.5;9;6
74430;PMS7003;62863;52.062;23.764;2022-09-09T11:28:40;8.5;8;5
74430;PMS7003;62863;52.062;23.764;2022-09-09T11:33:34;8.5;8.3;6
74430;PMS7003;62863;52.062;23.764;2022-09-09T11:38:52;8.2;7.6;6
74430;PMS7003;62863;52.062;23.764;2022-09-09T11:43:43;9.3;8.3;5.7
74430;PMS7003;62863;52.062;23.764;2022-09-09T11:49:00;10;10;8
74430;PMS7003;62863;52.062;23.764;2022-09-09T11:53:52;8.5;8.5;6.5
74430;PMS7003;62863;52.062;23.764;2022-09-09T11:59:20;8.5;8.5;6.5
74430;PMS7003;62863;52.062;23.764;2022-09-09T12:03:52;8.5;8.5;6.5
74430;PMS7003;62863;52.062;23.764;2022-09-09T12:09:12;11.5;7.5;6
74430;PMS7003;62863;52.062;23.764;2022-09-09T12:13:20;9;8;5
74430;PMS7003;62863;52.062;23.764;2022-09-09T12:18:35;8.3;6.5;5.3
74430;PMS7003;62863;52.062;23.764;2022-09-09T12:23:32;8;8;5
74430;PMS7003;62863;52.062;23.764;2022-09-09T12:29:05;6;6;5
74430;PMS7003;62863;52.062;23.764;2022-09-09T12:33:51;8;7;6
74430;PMS7003;62863;52.062;23.764;2022-09-09T12:38:38;9.5;8.5;6
74430;PMS7003;62863;52.062;23.764;2022-09-09T12:44:04;12;9;7
74430;PMS7003;62863;52.062;23.764;2022-09-09T12:48:51;8;7.3;4.8
74430;PMS7003;62863;52.062;23.764;2022-09-09T12:53:39;10.3;9;6
74430;PMS7003;62863;52.062;23.764;2022-09-09T12:58:39;8.4;6.8;5.4
74430;PMS7003;62863;52.062;23.764;2022-09-09T13:03:43;10.4;8.2;6.4
74430;PMS7003;62863;52.062;23.764;2022-09-09T13:08:20;9.8;9.4;6.2
74430;PMS7003;62863;52.062;23.764;2022-09-09T13:13:22;8.2;7.8;5.6
74430;PMS7003;62863;52.062;23.764;2022-09-09T13:18:41;10.3;8.3;6.5
74430;PMS7003;62863;52.062;23.764;2022-09-09T13:23:48;10.6;8.8;6.4
74430;PMS7003;62863;52.062;23.764;2022-09-09T13:29:09;9;7.3;5.8
74430;PMS7003;62863;52.062;23.764;2022-09-09T13:34:35;8.3;8;5.8
74430;PMS7003;62863;52.062;23.764;2022-09-09T13:38:38;8.7;7.7;5.7
74430;PMS7003;62863;52.062;23.764;2022-09-09T13:44:06;6.7;5.7;4
74430;PMS7003;62863;52.062;23.764;2022-09-09T13:54:02;8.4;8;5.8
74430;PMS7003;62863;52.062;23.764;2022-09-09T13:58:44;12;8;5
74430;PMS7003;62863;52.062;23.764;2022-09-09T14:04:02;8.2;7.2;5.8
74430;PMS7003;62863;52.062;23.764;2022-09-09T14:09:06;7.5;7;5.8
74430;PMS7003;62863;52.062;23.764;2022-09-09T14:14:08;11;9.5;8.5
74430;PMS7003;62863;52.062;23.764;2022-09-09T14:18:46;9;8.3;6.7
74430;PMS7003;62863;52.062;23.764;2022-09-09T14:23:56;7;5.5;4.5
74430;PMS7003;62863;52.062;23.764;2022-09-09T14:28:50;8;6.8;4.5
74430;PMS7003;62863;52.062;23.764;2022-09-09T14:33:21;8.4;7.8;6.2
74430;PMS7003;62863;52.062;23.764;2022-09-09T14:38:54;8.5;8;5.5
74430;PMS7003;62863;52.062;23.764;2022-09-09T14:44:04;7.7;7.3;4
74430;PMS7003;62863;52.062;23.764;2022-09-09T14:48:32;9;9;7
74430;PMS7003;62863;52.062;23.764;2022-09-09T14:53:32;14;8;7
74430;PMS7003;62863;52.062;23.764;2022-09-09T14:59:04;10;7;5
74430;PMS7003;62863;52.062;23.764;2022-09-09T15:03:40;8;8;5
74430;PMS7003;62863;52.062;23.764;2022-09-09T15:18:54;8;8;5
74430;PMS7003;62863;52.062;23.764;2022-09-09T15:24:04;9;8;5
74430;PMS7003;62863;52.062;23.764;2022-09-09T15:28:42;9;4.5;4
74430;PMS7003;62863;52.062;23.764;2022-09-09T15:33:42;7;7;6
74430;PMS7003;62863;52.062;23.764;2022-09-09T15:38:22;8;7;5
74430;PMS7003;62863;52.062;23.764;2022-09-09T15:43:44;8;7;5
74430;PMS7003;62863;52.062;23.764;2022-09-09T15:48:46;6;6;4
74430;PMS7003;62863;52.062;23.764;2022-09-09T15:59:08;6;6;4
74430;PMS7003;62863;52.062;23.764;2022-09-09T16:04:08;6;4.5;4.5
74430;PMS7003;62863;52.062;23.764;2022-09-09T16:08:41;5;4;3.3
74430;PMS7003;62863;52.062;23.764;2022-09-09T16:14:06;7;5;4
74430;PMS7003;62863;52.062;23.764;2022-09-09T16:19:09;6;5;4
74430;PMS7003;62863;52.062;23.764;2022-09-09T16:24:06;8;7;5
74430;PMS7003;62863;52.062;23.764;2022-09-09T16:28:22;8;7;5
74430;PMS7003;62863;52.062;23.764;2022-09-09T16:33:22;8;5;4
74430;PMS7003;62863;52.062;23.764;2022-09-09T16:39:07;8;5;4
74430;PMS7003;62863;52.062;23.764;2022-09-09T16:43:56;5;5;4
74430;PMS7003;62863;52.062;23.764;2022-09-09T16:53:22;9;7;4
74430;PMS7003;62863;52.062;23.764;2022-09-09T16:58:50;5;5;4
74430;PMS7003;62863;52.062;23.764;2022-09-09T17:03:32;5;5;4
74430;PMS7003;62863;52.062;23.764;2022-09-09T17:14:09;4;4;4
74430;PMS7003;62863;52.062;23.764;2022-09-09T17:18:32;4;4;4
74430;PMS7003;62863;52.062;23.764;2022-09-09T17:23:22;4;4;4
74430;PMS7003;62863;52.062;23.764;2022-09-09T17:29:06;8;4.5;3.5
74430;PMS7003;62863;52.062;23.764;2022-09-09T17:33:24;5;5;4
74430;PMS7003;62863;52.062;23.764;2022-09-09T17:39:06;5;4.5;3.5
74430;PMS7003;62863;52.062;23.764;2022-09-09T17:43:30;4;4;3
74430;PMS7003;62863;52.062;23.764;2022-09-09T17:49:09;3.7;3.3;2.7
74430;PMS7003;62863;52.062;23.764;2022-09-09T17:53:54;5.2;4.6;3
74430;PMS7003;62863;52.062;23.764;2022-09-09T17:58:42;5.8;5;3.5
74430;PMS7003;62863;52.062;23.764;2022-09-09T18:03:33;7;7;4.5
74430;PMS7003;62863;52.062;23.764;2022-09-09T18:08:32;6;5.2;3.8
74430;PMS7003;62863;52.062;23.764;2022-09-09T18:13:40;5.5;5.5;3.5
74430;PMS7003;62863;52.062;23.764;2022-09-09T18:18:32;4.5;4.5;3
74430;PMS7003;62863;52.062;23.764;2022-09-09T18:23:58;8;6;4
74430;PMS7003;62863;52.062;23.764;2022-09-09T18:29:09;8;4;4
74430;PMS7003;62863;52.062;23.764;2022-09-09T18:33:52;8;4;4
74430;PMS7003;62863;52.062;23.764;2022-09-09T18:38:48;6.5;4;3.5
74430;PMS7003;62863;52.062;23.764;2022-09-09T18:43:40;6.5;4;3.5
74430;PMS7003;62863;52.062;23.764;2022-09-09T18:48:50;3;3;3
74430;PMS7003;62863;52.062;23.764;2022-09-09T18:54:06;4;4;3
74430;PMS7003;62863;52.062;23.764;2022-09-09T19:08:31;4;4;3
74430;PMS7003;62863;52.062;23.764;2022-09-09T19:13:57;6.5;4;3.5
74430;PMS7003;62863;52.062;23.764;2022-09-09T19:23:56;4;4;3
74430;PMS7003;62863;52.062;23.764;2022-09-09T19:28:50;6;3.5;3
74430;PMS7003;62863;52.062;23.764;2022-09-09T19:33:51;6;3.5;3
74430;PMS7003;62863;52.062;23.764;2022-09-09T20:03:54;4;4;3
74430;PMS7003;62863;52.062;23.764;2022-09-09T20:13:38;4;4;4
74430;PMS7003;62863;52.062;23.764;2022-09-09T20:19:06;7;5;5
74430;PMS7003;62863;52.062;23.764;2022-09-09T20:23:57;5;4;3
74430;PMS7003;62863;52.062;23.764;2022-09-09T20:28:40;5;4;3
74430;PMS7003;62863;52.062;23.764;2022-09-09T20:33:46;5;4;3
74430;PMS7003;62863;52.062;23.764;2022-09-09T20:38:22;7;5;4
74430;PMS7003;62863;52.062;23.764;2022-09-09T20:53:46;5;5;3
74430;PMS7003;62863;52.062;23.764;2022-09-09T20:59:10;5;5;3
74430;PMS7003;62863;52.062;23.764;2022-09-09T21:03:44;5;5;4
74430;PMS7003;62863;52.062;23.764;2022-09-09T21:24:06;5;5;4
74430;PMS7003;62863;52.062;23.764;2022-09-09T21:28:54;4.2;3.6;2.4
74430;PMS7003;62863;52.062;23.764;2022-09-09T21:33:22;5;4.2;3.4
74430;PMS7003;62863;52.062;23.764;2022-09-09T21:38:22;5.6;4.6;3.4
74430;PMS7003;62863;52.062;23.764;2022-09-09T21:43:56;4.6;4.2;3.2
74430;PMS7003;62863;52.062;23.764;2022-09-09T21:48:46;4.2;3.6;3
74430;PMS7003;62863;52.062;23.764;2022-09-09T21:53:54;6;4.6;3.6
74430;PMS7003;62863;52.062;23.764;2022-09-09T21:58:53;5.4;4.2;3.6
74430;PMS7003;62863;52.062;23.764;2022-09-09T22:03:50;5.6;5;4
74430;PMS7003;62863;52.062;23.764;2022-09-09T22:08:42;6;3.8;3.4
74430;PMS7003;62863;52.062;23.764;2022-09-09T22:13:56;4.5;4.3;3.5
74430;PMS7003;62863;52.062;23.764;2022-09-09T22:19:06;5.2;4.6;3.2
74430;PMS7003;62863;52.062;23.764;2022-09-09T22:23:22;6;3.8;3
74430;PMS7003;62863;52.062;23.764;2022-09-09T22:28:40;4;2.8;2.6
74430;PMS7003;62863;52.062;23.764;2022-09-09T22:33:58;3.6;3.6;3
74430;PMS7003;62863;52.062;23.764;2022-09-09T22:38:54;3.4;3;2.6
74430;PMS7003;62863;52.062;23.764;2022-09-09T22:44:05;4.8;3.2;3
74430;PMS7003;62863;52.062;23.764;2022-09-09T22:48:40;4.2;3.8;3.2
74430;PMS7003;62863;52.062;23.764;2022-09-09T22:53:38;4.4;3.2;2.4
74430;PMS7003;62863;52.062;23.764;2022-09-09T22:59:04;4.4;3.6;2.8
74430;PMS7003;62863;52.062;23.764;2022-09-09T23:03:22;3.4;2.6;2.4
74430;PMS7003;62863;52.062;23.764;2022-09-09T23:08:40;4.6;3.6;3
74430;PMS7003;62863;52.062;23.764;2022-09-09T23:13:22;4.5;3;2.8
74430;PMS7003;62863;52.062;23.764;2022-09-09T23:18:22;3.6;2.8;2.4
74430;PMS7003;62863;52.062;23.764;2022-09-09T23:23:46;4;3;2.8
74430;PMS7003;62863;52.062;23.764;2022-09-09T23:28:46;3.2;2.8;2.2
74430;PMS7003;62863;52.062;23.764;2022-09-09T23:33:57;3.4;3;2.8
74430;PMS7003;62863;52.062;23.764;2022-09-09T23:39:04;4;3.2;3
74430;PMS7003;62863;52.062;23.764;2022-09-09T23:43:50;4;3.4;3
74430;PMS7003;62863;52.062;23.764;2022-09-09T23:48:54;4;3.4;2.8
74430;PMS7003;62863;52.062;23.764;2022-09-09T23:54:06;5.2;4;3.4
74430;PMS7003;62863;52.062;23.764;2022-09-09T23:59:06;3.2;3.2;2.4
